Time;durP1;ratioP1;P1;durP2;ratioP2;P2;SDS_P1;SDS_P2;PMS_P1;PMS_P2;Temp;Humidity;BMP_temperature;BMP_pressure;BME280_temperature;BME280_humidity;BME280_pressure;Samples;Min_cycle;Max_cycle;Signal;HPM_P1;HPM_P2
2023/04/23 00:02:55;;;;;;;6.65;3.80;;;;;;;9.51;70.42;99751.38;6354828;27;20390;-74
2023/04/23 00:05:56;;;;;;;8.10;3.28;;;;;;;9.53;71.67;99748.69;6355682;27;20039;-74
2023/04/23 00:08:59;;;;;;;7.93;3.45;;;;;;;9.46;73.18;99754.28;6373824;28;20131;-74
2023/04/23 00:12:01;;;;;;;6.68;3.20;;;;;;;9.42;71.87;99747.56;6373484;28;20449;-74
2023/04/23 00:15:03;;;;;;;6.22;3.83;;;;;;;9.40;71.61;99746.84;6373747;28;20104;-74
2023/04/23 00:18:08;;;;;;;4.25;3.10;;;;;;;9.32;71.86;99743.88;6356087;28;20046;-74
2023/04/23 00:21:09;;;;;;;7.47;3.58;;;;;;;9.27;71.70;99744.16;6373363;28;20518;-74
2023/04/23 00:24:10;;;;;;;7.72;3.78;;;;;;;9.16;72.69;99743.97;6373590;28;20054;-74
2023/04/23 00:27:11;;;;;;;4.95;3.28;;;;;;;9.10;73.30;99749.53;6354778;28;20065;-74
2023/04/23 00:30:12;;;;;;;6.03;3.63;;;;;;;9.11;74.54;99743.41;6355578;28;20047;-74
2023/04/23 00:33:13;;;;;;;5.57;3.38;;;;;;;9.06;74.99;99745.44;6354966;28;20386;-74
2023/04/23 00:36:14;;;;;;;3.85;2.95;;;;;;;9.02;72.48;99742.19;6355232;28;20051;-73
2023/04/23 00:39:15;;;;;;;4.75;3.10;;;;;;;8.96;69.05;99742.53;6373586;28;20055;-74
2023/04/23 00:42:16;;;;;;;7.00;3.30;;;;;;;8.97;70.11;99743.38;6355266;28;20142;-74
2023/04/23 00:45:17;;;;;;;6.43;3.30;;;;;;;8.98;70.20;99739.88;6373296;28;20099;-74
2023/04/23 00:48:17;;;;;;;4.32;3.03;;;;;;;8.97;70.86;99743.38;6355036;28;20058;-74
2023/04/23 00:51:23;;;;;;;5.00;2.95;;;;;;;8.97;70.10;99744.22;6355240;28;20051;-74
2023/04/23 00:54:24;;;;;;;3.95;2.60;;;;;;;8.94;69.49;99736.59;6355195;28;20093;-74
2023/04/23 00:57:25;;;;;;;4.25;3.08;;;;;;;8.97;68.76;99738.19;6354635;28;20083;-74
2023/04/23 01:00:26;;;;;;;6.22;3.10;;;;;;;8.93;68.73;99734.91;6354800;28;20086;-74
2023/04/23 01:03:28;;;;;;;6.78;3.47;;;;;;;8.90;69.93;99734.28;6354358;28;20445;-74
2023/04/23 01:06:32;;;;;;;4.05;2.67;;;;;;;8.89;71.02;99733.41;6373138;28;20047;-74
2023/04/23 01:09:33;;;;;;;4.80;2.70;;;;;;;8.87;70.40;99732.66;6372727;28;20051;-74
2023/04/23 01:12:33;;;;;;;5.95;3.53;;;;;;;8.85;69.42;99731.91;6373189;28;20508;-74
2023/04/23 01:15:34;;;;;;;4.47;2.80;;;;;;;8.85;71.40;99731.91;6356460;27;20124;-74
2023/04/23 01:18:36;;;;;;;7.22;3.15;;;;;;;8.84;73.39;99735.47;6377273;27;20059;-74
2023/04/23 01:21:42;;;;;;;5.18;3.58;;;;;;;8.87;71.88;99733.53;6377539;27;20047;-74
2023/04/23 01:24:42;;;;;;;7.13;3.17;;;;;;;8.89;71.16;99730.81;6377109;27;20432;-74
2023/04/23 01:27:43;;;;;;;4.18;2.72;;;;;;;8.92;73.92;99732.41;6377252;27;20047;-74
2023/04/23 01:30:46;;;;;;;5.43;2.97;;;;;;;8.94;74.99;99731.41;6377294;27;20047;-74
2023/04/23 01:33:49;;;;;;;5.55;3.13;;;;;;;8.94;75.23;99727.97;6376804;27;20051;-74
2023/04/23 01:36:52;;;;;;;6.35;3.25;;;;;;;8.95;75.20;99727.84;6376825;27;20082;-73
2023/04/23 01:39:52;;;;;;;5.30;3.08;;;;;;;8.92;76.65;99728.03;6358867;27;20054;-73
2023/04/23 01:42:55;;;;;;;6.05;3.15;;;;;;;8.94;78.33;99728.78;6376981;27;20047;-74
2023/04/23 01:45:57;;;;;;;9.68;2.92;;;;;;;8.93;80.13;99729.69;6377040;27;20089;-74
2023/04/23 01:48:57;;;;;;;3.58;2.88;;;;;;;8.93;79.40;99727.09;6376958;27;20055;-74
2023/04/23 01:51:58;;;;;;;7.38;3.35;;;;;;;8.92;79.54;99724.63;6376575;27;20051;-74
2023/04/23 01:55:00;;;;;;;5.45;3.47;;;;;;;8.92;80.34;99727.22;6358472;27;20580;-74
2023/04/23 01:58:01;;;;;;;6.10;3.10;;;;;;;8.92;81.37;99727.22;6358607;27;20047;-74
2023/04/23 02:01:04;;;;;;;4.80;3.08;;;;;;;8.92;80.62;99727.22;6376862;27;20043;-74
2023/04/23 02:04:05;;;;;;;4.50;3.03;;;;;;;8.91;78.65;99728.13;6376194;27;20055;-74
2023/04/23 02:07:06;;;;;;;6.70;3.90;;;;;;;8.85;77.81;99734.53;6376369;27;20051;-74
2023/04/23 02:10:08;;;;;;;10.23;3.65;;;;;;;8.90;78.11;99727.31;6357695;27;20062;-74
2023/04/23 02:13:09;;;;;;;6.30;3.80;;;;;;;8.98;80.10;99732.06;6356993;27;20473;-70
2023/04/23 02:16:11;;;;;;;5.32;3.55;;;;;;;8.98;82.77;99729.44;6356129;27;20054;-70
2023/04/23 02:19:14;;;;;;;3.83;3.08;;;;;;;9.01;83.23;99727.47;6373966;27;20447;-71
2023/04/23 02:22:16;;;;;;;7.60;4.38;;;;;;;8.98;79.73;99729.44;6373953;27;20134;-70
2023/04/23 02:25:17;;;;;;;6.75;3.67;;;;;;;8.96;75.77;99734.75;6355785;27;20051;-70
2023/04/23 02:28:18;;;;;;;7.68;4.07;;;;;;;8.98;74.69;99729.44;6373482;27;20409;-71
2023/04/23 02:31:19;;;;;;;6.28;3.60;;;;;;;9.02;74.51;99730.94;6374109;27;20545;-74
2023/04/23 02:34:20;;;;;;;7.85;4.15;;;;;;;9.10;76.90;99727.88;6375544;27;20500;-74
2023/04/23 02:37:21;;;;;;;6.43;3.95;;;;;;;9.17;81.66;99723.97;6357368;27;20106;-74
2023/04/23 02:40:22;;;;;;;8.52;4.05;;;;;;;9.19;83.30;99722.13;6357533;27;20054;-74
2023/04/23 02:43:25;;;;;;;7.13;3.78;;;;;;;9.20;80.78;99724.59;6375664;27;20051;-74
2023/04/23 02:46:25;;;;;;;6.22;3.58;;;;;;;9.21;77.70;99731.50;6375290;27;20051;-74
2023/04/23 02:49:29;;;;;;;6.90;4.15;;;;;;;9.21;78.70;99722.88;6375569;27;20051;-74
2023/04/23 02:52:30;;;;;;;9.27;3.80;;;;;;;9.31;81.13;99725.72;6375107;27;20103;-74
2023/04/23 02:55:31;;;;;;;5.05;3.20;;;;;;;9.28;81.58;99724.16;6374252;27;20498;-70
2023/04/23 02:58:32;;;;;;;10.95;4.32;;;;;;;9.32;79.78;99720.44;6373323;27;20142;-70
2023/04/23 03:01:33;;;;;;;7.65;3.90;;;;;;;9.36;79.29;99724.53;6372887;27;20095;-70
2023/04/23 03:04:33;;;;;;;7.97;3.35;;;;;;;9.37;79.17;99736.63;6373520;27;20062;-74
2023/04/23 03:07:34;;;;;;;5.95;3.85;;;;;;;9.40;76.36;99731.22;6374302;27;20039;-70
2023/04/23 03:10:37;;;;;;;5.30;3.65;;;;;;;9.38;75.71;99729.63;6354661;27;20047;-70
2023/04/23 03:13:39;;;;;;;6.05;3.78;;;;;;;9.34;67.39;99725.56;6372742;27;20062;-71
2023/04/23 03:16:39;;;;;;;5.05;3.13;;;;;;;9.40;65.46;99726.00;6354479;27;20495;-70
2023/04/23 03:19:40;;;;;;;8.77;3.53;;;;;;;9.42;66.21;99718.94;6372734;27;20055;-70
2023/04/23 03:22:41;;;;;;;5.88;4.00;;;;;;;9.42;68.95;99726.75;6355019;27;20082;-74
2023/04/23 03:25:42;;;;;;;10.00;4.15;;;;;;;9.39;71.16;99739.97;6356240;27;20046;-74
2023/04/23 03:28:43;;;;;;;6.25;3.80;;;;;;;9.35;71.92;99730.66;6373071;27;20085;-71
2023/04/23 03:31:44;;;;;;;6.13;3.60;;;;;;;9.30;70.29;99724.88;6372528;27;20104;-71
2023/04/23 03:34:45;;;;;;;5.90;3.25;;;;;;;9.35;71.04;99738.47;6354002;27;20051;-70
2023/04/23 03:37:46;;;;;;;6.22;3.30;;;;;;;9.31;71.83;99744.81;6371999;27;20601;-71
2023/04/23 03:40:47;;;;;;;11.45;4.00;;;;;;;9.27;72.46;99744.16;6372173;27;20051;-71
2023/04/23 03:43:50;;;;;;;6.25;3.67;;;;;;;9.23;74.56;99747.88;6355666;27;20405;-74
2023/04/23 03:46:51;;;;;;;7.13;3.13;;;;;;;9.21;75.35;99749.72;6372420;27;20081;-71
2023/04/23 03:49:55;;;;;;;6.18;3.35;;;;;;;9.14;72.08;99748.44;6353749;27;20042;-71
2023/04/23 03:52:58;;;;;;;6.20;3.65;;;;;;;9.14;71.05;99760.59;6353737;27;20096;-71
2023/04/23 03:55:59;;;;;;;8.55;3.75;;;;;;;9.23;69.07;99763.47;6354543;27;20496;-74
2023/04/23 03:58:59;;;;;;;7.18;2.85;;;;;;;9.40;67.57;99767.66;6354070;27;20047;-71
2023/04/23 04:02:02;;;;;;;6.07;3.88;;;;;;;9.42;65.91;99775.41;6373370;27;20134;-74
2023/04/23 04:05:11;;;;;;;5.05;3.13;;;;;;;9.38;62.58;99777.34;6372473;27;20047;-70
2023/04/23 04:08:12;;;;;;;5.18;3.17;;;;;;;9.31;63.60;99777.78;6373762;27;20043;-73
2023/04/23 04:11:12;;;;;;;7.90;3.47;;;;;;;9.36;63.52;99784.41;6355620;28;20050;-71
2023/04/23 04:14:13;;;;;;;6.03;3.92;;;;;;;9.45;64.35;99783.00;6371565;28;20073;-71
2023/04/23 04:17:15;;;;;;;5.85;3.42;;;;;;;9.51;64.63;99798.25;6371854;28;20070;-71
2023/04/23 04:20:15;;;;;;;5.50;3.75;;;;;;;9.55;64.98;99791.09;6371592;28;20058;-71
2023/04/23 04:23:18;;;;;;;7.53;3.92;;;;;;;9.56;66.57;99792.78;6353203;28;20134;-71
2023/04/23 04:26:19;;;;;;;6.10;3.95;;;;;;;9.63;67.96;99792.31;6373410;28;20043;-71
2023/04/23 04:29:22;;;;;;;10.88;4.05;;;;;;;9.65;65.88;99784.41;6353704;28;20050;-74
2023/04/23 04:32:23;;;;;;;12.95;4.35;;;;;;;9.64;65.30;99788.78;6354706;28;20054;-71
2023/04/23 04:35:24;;;;;;;8.57;4.13;;;;;;;9.63;65.06;99783.66;6372470;28;20079;-74
2023/04/23 04:38:25;;;;;;;7.75;4.57;;;;;;;9.72;66.45;99785.72;6353846;28;20095;-71
2023/04/23 04:41:26;;;;;;;7.28;4.28;;;;;;;9.87;65.95;99792.56;6352994;28;20051;-70
2023/04/23 04:44:28;;;;;;;9.60;4.40;;;;;;;9.98;66.57;99789.28;6353040;28;20162;-71
2023/04/23 04:47:28;;;;;;;8.60;4.45;;;;;;;9.98;66.18;99789.28;6371116;28;20075;-71
2023/04/23 04:50:29;;;;;;;5.95;3.78;;;;;;;10.04;65.99;99791.50;6355304;27;20054;-74
2023/04/23 04:53:30;;;;;;;8.63;4.35;;;;;;;10.11;66.63;99778.94;6358877;27;20050;-71
2023/04/23 04:56:31;;;;;;;8.43;4.10;;;;;;;10.05;67.08;99792.38;6359111;27;20454;-74
2023/04/23 04:59:32;;;;;;;7.50;4.22;;;;;;;10.12;66.72;99792.81;6376549;27;20058;-71
2023/04/23 05:02:32;;;;;;;8.23;4.65;;;;;;;10.22;67.24;99786.06;6375694;27;20508;-71
2023/04/23 05:05:33;;;;;;;9.30;4.93;;;;;;;10.33;67.87;99783.63;6357691;27;20095;-70
2023/04/23 05:08:36;;;;;;;7.38;4.53;;;;;;;10.43;67.33;99791.72;6357614;27;20051;-70
2023/04/23 05:11:38;;;;;;;7.85;4.85;;;;;;;10.39;66.42;99793.69;6375837;27;20092;-70
2023/04/23 05:14:41;;;;;;;9.60;5.13;;;;;;;10.24;67.92;99792.88;6375597;27;20082;-70
2023/04/23 05:17:42;;;;;;;8.10;4.80;;;;;;;10.51;68.46;99797.28;6375754;27;20055;-70
2023/04/23 05:20:45;;;;;;;11.02;4.68;;;;;;;10.42;66.82;99790.06;6357558;27;20074;-70
2023/04/23 05:23:46;;;;;;;6.88;4.80;;;;;;;10.51;68.70;99799.88;6358793;27;20051;-74
2023/04/23 05:26:46;;;;;;;7.47;4.25;;;;;;;10.45;67.77;99797.66;6358846;27;20047;-74
2023/04/23 05:29:47;;;;;;;8.90;4.25;;;;;;;10.54;67.15;99802.28;6358967;27;20092;-74
2023/04/23 05:32:48;;;;;;;6.82;4.53;;;;;;;10.63;67.11;99804.31;6375847;27;20054;-71
2023/04/23 05:35:51;;;;;;;7.70;5.03;;;;;;;10.77;66.72;99803.41;6375159;27;20497;-71
2023/04/23 05:38:52;;;;;;;8.18;4.65;;;;;;;10.85;67.93;99801.13;6356946;27;20087;-71
2023/04/23 05:41:56;;;;;;;9.63;5.55;;;;;;;11.01;67.65;99802.72;6356866;27;20130;-71
2023/04/23 05:44:57;;;;;;;8.85;5.10;;;;;;;10.88;66.76;99800.09;6357149;27;20051;-74
2023/04/23 05:47:58;;;;;;;10.05;5.90;;;;;;;11.02;67.92;99801.78;6357899;27;20444;-74
2023/04/23 05:50:59;;;;;;;7.53;5.43;;;;;;;10.96;67.31;99802.19;6376441;27;20047;-74
2023/04/23 05:54:02;;;;;;;9.02;5.00;;;;;;;11.05;66.79;99797.16;6374950;27;20104;-71
2023/04/23 05:57:04;;;;;;;7.57;5.55;;;;;;;11.26;67.59;99807.97;6356802;27;20054;-75
2023/04/23 06:00:08;;;;;;;12.10;6.00;;;;;;;11.33;65.65;99807.56;6358263;27;20051;-75
2023/04/23 06:03:09;;;;;;;11.07;5.85;;;;;;;11.43;66.26;99805.97;6375519;27;20062;-74
2023/04/23 06:06:11;;;;;;;7.95;5.05;;;;;;;11.52;64.78;99801.91;6376461;27;20047;-75
2023/04/23 06:09:15;;;;;;;6.30;4.38;;;;;;;11.60;66.38;99808.25;6357742;27;20047;-74
2023/04/23 06:12:16;;;;;;;8.93;4.78;;;;;;;11.69;65.79;99801.56;6376232;27;20057;-75
2023/04/23 06:15:17;;;;;;;9.50;5.67;;;;;;;11.86;65.13;99808.22;6375877;27;20055;-74
2023/04/23 06:18:18;;;;;;;7.97;5.65;;;;;;;11.92;65.18;99809.59;6358014;27;20543;-75
2023/04/23 06:21:19;;;;;;;7.18;4.93;;;;;;;12.09;64.28;99814.47;6357680;27;20409;-74
2023/04/23 06:24:22;;;;;;;10.38;5.85;;;;;;;12.36;64.96;99810.84;6357594;27;20055;-74
2023/04/23 06:27:23;;;;;;;8.50;4.97;;;;;;;12.41;61.41;99809.53;6357596;27;20047;-74
2023/04/23 06:30:23;;;;;;;8.57;5.40;;;;;;;12.54;62.27;99813.88;6357561;27;20074;-74
2023/04/23 06:33:24;;;;;;;9.68;5.60;;;;;;;12.89;62.34;99820.00;6357409;27;20047;-74
2023/04/23 06:36:25;;;;;;;9.05;5.22;;;;;;;13.02;60.99;99814.66;6357439;27;20047;-74
2023/04/23 06:39:26;;;;;;;8.95;5.32;;;;;;;13.21;60.76;99816.72;6375314;27;20043;-74
2023/04/23 06:42:26;;;;;;;9.23;5.57;;;;;;;13.43;60.16;99825.63;6357298;27;20524;-74
2023/04/23 06:45:30;;;;;;;8.07;5.25;;;;;;;13.52;60.11;99831.94;6375024;27;20054;-74
2023/04/23 06:48:31;;;;;;;15.23;6.03;;;;;;;13.45;60.47;99831.56;6375270;27;20050;-74
2023/04/23 06:51:32;;;;;;;10.50;5.70;;;;;;;13.65;58.87;99822.16;6356540;27;20433;-74
2023/04/23 06:54:32;;;;;;;9.80;5.13;;;;;;;13.73;58.99;99817.16;6357200;27;20051;-75
2023/04/23 06:57:36;;;;;;;10.98;5.55;;;;;;;13.80;59.67;99818.34;6356787;27;20051;-74
2023/04/23 07:00:36;;;;;;;8.00;4.93;;;;;;;13.88;58.73;99825.63;6375143;27;20088;-74
2023/04/23 07:03:37;;;;;;;12.23;5.25;;;;;;;13.91;58.75;99820.13;6355809;27;20055;-74
2023/04/23 07:06:38;;;;;;;10.43;5.07;;;;;;;14.15;57.78;99827.84;6356468;27;20389;-75
2023/04/23 07:09:39;;;;;;;12.40;5.65;;;;;;;14.57;57.81;99821.94;6356146;27;20046;-75
2023/04/23 07:12:41;;;;;;;10.60;5.85;;;;;;;14.92;55.92;99824.28;6373766;27;20055;-75
2023/04/23 07:15:42;;;;;;;11.25;5.40;;;;;;;15.19;54.21;99821.16;6356444;27;20043;-75
2023/04/23 07:18:43;;;;;;;10.52;5.47;;;;;;;15.70;56.01;99822.09;6374855;27;20138;-75
2023/04/23 07:21:44;;;;;;;12.95;5.57;;;;;;;15.81;53.06;99822.03;6374357;27;20046;-75
2023/04/23 07:24:44;;;;;;;10.38;5.32;;;;;;;15.87;53.16;99825.94;6374435;27;20478;-75
2023/04/23 07:27:45;;;;;;;9.50;5.40;;;;;;;16.18;52.57;99821.44;6374472;27;20107;-75
2023/04/23 07:30:46;;;;;;;8.50;5.53;;;;;;;16.28;51.73;99832.00;6374343;27;20058;-75
2023/04/23 07:33:49;;;;;;;12.75;6.18;;;;;;;16.43;51.86;99830.66;6356343;27;20051;-75
2023/04/23 07:36:50;;;;;;;9.68;5.22;;;;;;;16.26;51.92;99821.59;6373794;27;20481;-75
2023/04/23 07:39:52;;;;;;;8.27;5.20;;;;;;;16.63;52.42;99826.22;6373737;27;20051;-74
2023/04/23 07:42:57;;;;;;;9.38;5.15;;;;;;;16.59;50.54;99824.84;6355824;27;20080;-75
2023/04/23 07:45:58;;;;;;;11.80;5.47;;;;;;;16.69;50.40;99830.13;6355544;27;20382;-75
2023/04/23 07:48:59;;;;;;;8.15;4.90;;;;;;;17.07;49.92;99824.03;6374015;27;20043;-75
2023/04/23 07:52:02;;;;;;;9.53;5.10;;;;;;;17.39;50.15;99827.28;6355424;27;20054;-75
2023/04/23 07:55:04;;;;;;;9.02;4.95;;;;;;;17.58;49.78;99824.59;6355703;27;20055;-75
2023/04/23 07:58:05;;;;;;;7.60;4.80;;;;;;;17.83;48.49;99833.72;6355318;27;20043;-75
2023/04/23 08:01:06;;;;;;;5.53;4.15;;;;;;;18.01;47.74;99830.28;6374048;27;20491;-75
2023/04/23 08:04:07;;;;;;;8.35;5.25;;;;;;;18.24;46.38;99828.06;6373139;27;20238;-75
2023/04/23 08:07:08;;;;;;;8.48;4.82;;;;;;;18.39;45.89;99826.56;6355497;27;20051;-75
2023/04/23 08:10:09;;;;;;;35.90;20.17;;;;;;;18.52;46.42;99831.50;6354718;27;20043;-71
2023/04/23 08:13:12;;;;;;;12.82;7.68;;;;;;;18.86;45.01;99826.38;6354469;28;20219;-75
2023/04/23 08:16:13;;;;;;;10.03;4.40;;;;;;;18.81;44.70;99826.00;6373263;28;20079;-75
2023/04/23 08:19:15;;;;;;;14.25;7.75;;;;;;;18.88;44.50;99824.41;6353937;28;20089;-71
2023/04/23 08:22:16;;;;;;;10.20;5.30;;;;;;;18.90;44.80;99817.16;6372781;28;20047;-75
2023/04/23 08:25:17;;;;;;;6.18;4.32;;;;;;;18.69;44.34;99820.06;6356770;27;20158;-75
2023/04/23 08:28:20;;;;;;;6.65;4.70;;;;;;;18.97;44.84;99816.56;6376939;27;20130;-72
2023/04/23 08:31:21;;;;;;;9.90;4.45;;;;;;;19.20;44.47;99822.16;6377024;27;20080;-72
2023/04/23 08:34:22;;;;;;;6.37;3.80;;;;;;;19.32;43.08;99816.47;6376839;27;20043;-72
2023/04/23 08:37:23;;;;;;;6.45;3.95;;;;;;;19.36;42.43;99816.16;6377620;27;20397;-75
2023/04/23 08:40:28;;;;;;;19.20;13.25;;;;;;;19.49;43.13;99812.09;6359722;27;20515;-75
2023/04/23 08:43:43;;;;;;;9.07;5.93;;;;;;;19.26;41.38;99819.72;6359592;27;20137;-75
2023/04/23 08:46:44;;;;;;;4.65;3.10;;;;;;;19.39;39.32;99813.19;6377145;27;20504;-75
2023/04/23 08:49:45;;;;;;;8.57;3.97;;;;;;;19.63;39.48;99810.69;6377578;27;20594;-75
2023/04/23 08:52:52;;;;;;;8.85;5.25;;;;;;;19.76;42.29;99820.84;6359606;27;20047;-75
2023/04/23 08:55:55;;;;;;;4.93;3.45;;;;;;;19.72;41.81;99820.34;6358995;27;20400;-75
2023/04/23 08:58:56;;;;;;;5.15;3.40;;;;;;;19.91;41.06;99813.13;6376175;27;20126;-72
2023/04/23 09:01:58;;;;;;;5.50;3.57;;;;;;;20.08;39.17;99816.69;6376425;27;20058;-75
2023/04/23 09:05:05;;;;;;;5.90;4.68;;;;;;;20.22;40.84;99810.78;6358606;27;20051;-75
2023/04/23 09:08:06;;;;;;;6.82;3.50;;;;;;;20.37;39.03;99810.97;6358559;27;20058;-73
2023/04/23 09:11:08;;;;;;;6.28;3.47;;;;;;;20.70;37.33;99811.03;6357496;27;20386;-72
2023/04/23 09:14:09;;;;;;;10.55;3.55;;;;;;;20.72;36.23;99811.69;6358318;27;20053;-75
2023/04/23 09:17:10;;;;;;;4.30;3.28;;;;;;;20.70;38.93;99805.72;6357486;27;20039;-72
2023/04/23 09:20:12;;;;;;;6.47;3.45;;;;;;;20.84;39.37;99809.56;6376648;27;20546;-72
2023/04/23 09:23:15;;;;;;;6.65;4.07;;;;;;;20.89;39.54;99812.53;6375439;27;20055;-72
2023/04/23 09:26:21;;;;;;;5.20;3.22;;;;;;;20.96;38.47;99805.56;6357639;27;20050;-75
2023/04/23 09:29:22;;;;;;;6.38;3.33;;;;;;;21.25;37.98;99802.38;6375509;27;20402;-73
2023/04/23 09:32:40;;;;;;;4.32;2.97;;;;;;;21.53;38.28;99802.81;6375172;27;20535;-72
2023/04/23 09:35:46;;;;;;;8.88;3.58;;;;;;;21.80;37.94;99799.91;6374353;27;20078;-75
2023/04/23 09:38:48;;;;;;;5.50;3.65;;;;;;;21.99;37.91;99809.28;6357534;27;20448;-72
2023/04/23 09:41:52;;;;;;;5.40;2.80;;;;;;;22.07;35.37;99812.75;6375133;27;20054;-72
2023/04/23 09:44:59;;;;;;;5.65;3.10;;;;;;;21.81;35.76;99804.22;6375610;27;20483;-76
2023/04/23 09:48:00;;;;;;;5.90;3.00;;;;;;;21.59;36.53;99801.31;6375512;27;20431;-75
2023/04/23 09:51:01;;;;;;;3.75;2.42;;;;;;;21.39;36.36;99794.69;6376220;27;20524;-75
2023/04/23 09:54:02;;;;;;;4.57;2.63;;;;;;;22.10;35.42;99791.13;6375532;27;20047;-75
2023/04/23 09:57:07;;;;;;;2.60;1.90;;;;;;;22.45;29.52;99798.75;6375654;27;20039;-76
2023/04/23 10:00:21;;;;;;;4.72;2.22;;;;;;;22.71;31.64;99790.41;6376211;27;20058;-75
2023/04/23 10:03:33;;;;;;;8.65;2.95;;;;;;;22.97;30.75;99783.88;6356325;27;20417;-72
2023/04/23 10:06:35;;;;;;;3.17;2.28;;;;;;;23.19;31.55;99782.22;6356062;27;20526;-72
2023/04/23 10:09:36;;;;;;;4.25;2.45;;;;;;;23.06;31.27;99774.81;6374591;27;20043;-72
2023/04/23 10:12:37;;;;;;;2.97;2.03;;;;;;;23.41;30.39;99765.31;6355916;27;20069;-72
2023/04/23 10:15:38;;;;;;;3.47;2.10;;;;;;;23.65;30.52;99766.03;6356176;27;20043;-72
2023/04/23 10:18:40;;;;;;;3.85;2.53;;;;;;;23.36;29.36;99769.53;6356062;27;20554;-72
2023/04/23 10:21:45;;;;;;;4.43;2.05;;;;;;;23.65;27.78;99766.84;6355787;27;20058;-73
2023/04/23 10:24:51;;;;;;;3.95;2.38;;;;;;;23.43;29.03;99757.97;6355708;27;20145;-73
2023/04/23 10:27:53;;;;;;;4.35;2.30;;;;;;;23.65;28.99;99756.19;6373861;27;20055;-73
2023/04/23 10:30:55;;;;;;;4.75;2.05;;;;;;;23.54;27.02;99760.16;6374061;27;20043;-73
2023/04/23 10:33:58;;;;;;;2.90;1.90;;;;;;;23.81;27.77;99752.53;6355526;27;20049;-73
2023/04/23 10:37:00;;;;;;;4.60;2.08;;;;;;;23.91;27.69;99750.41;6355542;27;20054;-73
2023/04/23 10:40:13;;;;;;;2.33;1.80;;;;;;;23.71;26.10;99746.66;6373594;27;20047;-72
2023/04/23 10:43:19;;;;;;;3.17;1.98;;;;;;;23.76;25.59;99741.56;6355450;27;20103;-72
2023/04/23 10:46:29;;;;;;;2.75;1.85;;;;;;;23.88;27.33;99748.09;6373304;27;20074;-72
2023/04/23 10:49:32;;;;;;;3.35;2.15;;;;;;;24.18;26.63;99745.34;6355136;27;20485;-72
2023/04/23 10:52:34;;;;;;;2.30;1.88;;;;;;;24.36;24.48;99739.59;6373224;27;20054;-72
2023/04/23 10:55:37;;;;;;;;;;;;;;;24.55;23.81;99734.66;6355561;27;20051;-72
2023/04/23 10:58:51;;;;;;;2.33;1.77;;;;;;;24.65;24.43;99732.50;6373197;27;19948;-73
2023/04/23 11:01:52;;;;;;;5.97;2.00;;;;;;;24.62;27.13;99727.53;6355234;27;20502;-75
2023/04/23 11:04:57;;;;;;;5.30;1.83;;;;;;;24.87;29.13;99719.91;6373562;27;20047;-76
2023/04/23 11:08:03;;;;;;;4.07;1.92;;;;;;;24.97;24.47;99719.56;6373895;27;20119;-76
2023/04/23 11:11:08;;;;;;;2.25;1.60;;;;;;;25.08;25.32;99727.00;6355418;27;20079;-76
2023/04/23 11:14:15;;;;;;;4.88;1.95;;;;;;;24.99;24.96;99726.34;6354918;27;20043;-76
2023/04/23 11:17:25;;;;;;;3.53;1.80;;;;;;;25.07;25.33;99722.72;6354907;27;20043;-76
2023/04/23 11:20:25;;;;;;;2.90;2.13;;;;;;;25.25;24.73;99731.06;6373312;27;20047;-76
2023/04/23 11:23:31;;;;;;;9.68;1.95;;;;;;;25.25;23.39;99719.56;6373126;27;20126;-76
2023/04/23 11:26:33;;;;;;;3.85;1.80;;;;;;;25.28;25.32;99719.16;6372776;27;20083;-76
2023/04/23 11:29:36;;;;;;;3.60;1.95;;;;;;;25.54;26.03;99721.97;6373188;27;20047;-76
2023/04/23 11:32:38;;;;;;;7.55;2.10;;;;;;;25.57;26.04;99712.72;6355221;27;20050;-76
2023/04/23 11:35:40;;;;;;;1.58;1.38;;;;;;;25.96;26.42;99715.75;6355317;27;20051;-76
2023/04/23 11:38:41;;;;;;;5.75;1.90;;;;;;;25.57;24.10;99701.22;6355154;27;20080;-76
2023/04/23 11:41:43;;;;;;;2.63;1.75;;;;;;;25.49;24.08;99703.03;6354805;27;20043;-76
2023/04/23 11:44:45;;;;;;;1.83;1.55;;;;;;;25.86;27.50;99698.25;6372816;27;20055;-76
2023/04/23 11:47:47;;;;;;;;;;;;;;;25.81;25.46;99703.34;6372706;27;20153;-72
2023/04/23 11:50:48;;;;;;;4.10;1.52;;;;;;;24.53;26.19;99693.00;6372094;27;20313;-72
2023/04/23 11:53:49;;;;;;;2.33;1.52;;;;;;;23.87;25.11;99689.69;6372093;27;20096;-72
2023/04/23 11:56:52;;;;;;;4.57;1.80;;;;;;;22.97;26.60;99682.78;6371904;27;20050;-72
2023/04/23 11:59:53;;;;;;;3.53;1.92;;;;;;;23.29;25.78;99685.09;6371515;27;20043;-72
2023/04/23 12:03:02;;;;;;;2.13;1.60;;;;;;;23.07;25.33;99672.72;6371815;27;20054;-72
2023/04/23 12:06:08;;;;;;;2.08;1.73;;;;;;;24.60;25.57;99666.38;6353287;27;20488;-73
2023/04/23 12:09:14;;;;;;;2.75;1.70;;;;;;;24.65;24.75;99677.28;6353418;27;20047;-73
2023/04/23 12:12:15;;;;;;;5.93;2.15;;;;;;;25.47;26.38;99673.03;6353523;28;20130;-76
2023/04/23 12:15:16;;;;;;;2.37;1.70;;;;;;;25.54;24.38;99665.06;6353942;28;20047;-75
2023/04/23 12:18:17;;;;;;;2.15;1.67;;;;;;;25.58;25.59;99665.47;6353630;28;20288;-76
2023/04/23 12:21:18;;;;;;;2.53;1.65;;;;;;;25.20;24.83;99661.38;6372485;28;20503;-76
2023/04/23 12:24:26;;;;;;;2.43;1.70;;;;;;;25.60;25.69;99658.09;6353566;28;20043;-75
2023/04/23 12:27:32;;;;;;;4.03;1.92;;;;;;;25.98;24.55;99658.38;6372043;28;20047;-76
2023/04/23 12:30:41;;;;;;;2.15;1.73;;;;;;;25.73;24.21;99658.91;6353318;28;20047;-76
2023/04/23 12:33:42;;;;;;;4.38;1.58;;;;;;;25.84;24.85;99651.34;6371975;28;20051;-76
2023/04/23 12:36:46;;;;;;;4.78;1.60;;;;;;;25.52;25.75;99645.72;6353268;28;20051;-76
2023/04/23 12:39:47;;;;;;;4.30;1.98;;;;;;;25.64;23.40;99645.97;6371850;28;20047;-76
2023/04/23 12:42:51;;;;;;;2.27;1.50;;;;;;;25.53;23.90;99637.53;6353482;28;20058;-75
2023/04/23 12:45:53;;;;;;;2.50;1.65;;;;;;;25.73;23.31;99634.88;6353369;28;20047;-76
2023/04/23 12:48:57;;;;;;;4.72;1.83;;;;;;;24.83;22.83;99623.44;6371755;28;20051;-76
2023/04/23 12:52:02;;;;;;;4.07;1.50;;;;;;;25.73;24.74;99634.88;6372004;28;20079;-76
2023/04/23 12:55:03;;;;;;;2.70;2.00;;;;;;;24.82;23.26;99632.44;6353908;28;20047;-76
2023/04/23 12:58:06;;;;;;;2.00;1.80;;;;;;;25.49;22.79;99633.59;6371849;28;20051;-76
2023/04/23 13:01:10;;;;;;;5.20;2.03;;;;;;;25.81;24.78;99623.19;6353399;28;20104;-75
2023/04/23 13:04:11;;;;;;;2.58;2.17;;;;;;;25.88;25.00;99620.50;6371192;28;20059;-75
2023/04/23 13:07:12;;;;;;;2.05;1.67;;;;;;;25.58;24.59;99626.22;6371330;28;20043;-76
2023/04/23 13:10:15;;;;;;;2.80;1.73;;;;;;;25.70;26.96;99619.25;6371198;27;20058;-75
2023/04/23 13:13:18;;;;;;;2.10;1.73;;;;;;;25.67;24.81;99618.84;6357421;27;20051;-75
2023/04/23 13:16:21;;;;;;;5.43;1.80;;;;;;;25.81;26.19;99611.69;6375691;27;20457;-76
2023/04/23 13:19:25;;;;;;;4.45;1.80;;;;;;;25.92;26.16;99619.09;6357634;27;20047;-75
2023/04/23 13:22:27;;;;;;;4.65;1.50;;;;;;;26.12;23.08;99619.13;6375764;27;20533;-75
2023/04/23 13:25:28;;;;;;;2.60;1.70;;;;;;;26.01;23.14;99607.22;6357602;27;20047;-73
2023/04/23 13:28:31;;;;;;;3.97;1.97;;;;;;;25.66;22.08;99591.31;6356973;27;20141;-72
2023/04/23 13:31:32;;;;;;;2.65;1.70;;;;;;;25.73;22.76;99593.97;6357304;27;20047;-73
2023/04/23 13:34:35;;;;;;;2.75;1.50;;;;;;;26.16;23.42;99596.31;6357249;27;20054;-73
2023/04/23 13:37:39;;;;;;;3.17;1.80;;;;;;;26.45;22.89;99586.19;6375043;27;20386;-72
2023/04/23 13:40:40;;;;;;;4.35;1.88;;;;;;;26.12;23.24;99587.88;6375056;27;20047;-72
2023/04/23 13:43:41;;;;;;;2.88;1.58;;;;;;;25.96;22.30;99585.59;6375023;27;20474;-73
2023/04/23 13:46:42;;;;;;;3.50;1.40;;;;;;;25.61;24.78;99579.59;6374798;27;20172;-72
2023/04/23 13:49:45;;;;;;;3.67;1.95;;;;;;;25.39;23.83;99569.06;6374901;27;20512;-72
2023/04/23 13:52:48;;;;;;;1.75;1.65;;;;;;;25.40;23.63;99564.56;6356748;27;20047;-73
2023/04/23 13:55:52;;;;;;;2.42;1.65;;;;;;;25.14;22.86;99569.59;6356480;27;20066;-73
2023/04/23 13:58:54;;;;;;;1.95;1.70;;;;;;;25.00;23.44;99567.91;6374795;27;20061;-73
2023/04/23 14:01:55;;;;;;;2.13;1.67;;;;;;;24.62;24.31;99570.97;6374674;27;20082;-73
2023/04/23 14:04:57;;;;;;;2.97;1.90;;;;;;;25.22;23.96;99565.09;6374423;27;20107;-73
2023/04/23 14:07:58;;;;;;;4.40;1.60;;;;;;;25.30;23.27;99565.75;6356154;27;20051;-72
2023/04/23 14:10:58;;;;;;;1.77;1.40;;;;;;;25.39;22.40;99553.06;6356134;27;20051;-74
2023/04/23 14:14:00;;;;;;;2.07;1.70;;;;;;;24.78;23.41;99558.34;6356273;27;20272;-73
2023/04/23 14:17:00;;;;;;;4.25;1.42;;;;;;;24.15;24.09;99548.50;6374162;27;20039;-72
2023/04/23 14:20:01;;;;;;;3.17;1.67;;;;;;;24.26;24.32;99547.16;6374405;27;20046;-73
2023/04/23 14:23:30;;;;;;;2.05;1.52;;;;;;;24.64;23.91;99541.44;6373740;27;20053;-73